<?xml version="1.0" encoding="UTF-8" standalone="no" ?>
<gpx xmlns="http://www.topografix.com/GPX/1/1" xmlns:xsi="http://www.w3.org/2001/XMLSchema-instance" xsi:schemaLocation="http://www.topografix.com/GPX/1/1 http://www.topografix.com/GPX/1/1/gpx.xsd" version="1.1" creator="VisuGPX - https://www.visugpx.com">
  <metadata>
    <name>LA MOTTE SAUT DU CAPELAN</name>
    <desc><![CDATA[Petite randonnée autour de la Motte en passant par le saut du capelan (chutes de la Nartuby).]]></desc>
  </metadata>
  <trk>
    <name><![CDATA[OR-6137758--Motte (La):SAUT DU CAPELAN 2016]]></name>
    <trkseg>
      <trkpt lat="43.49309" lon="6.53582">
        <ele>71</ele>
        <time>2016-05-25T23:59:57Z</time>
      </trkpt>
      <trkpt lat="43.49298" lon="6.5357">
        <ele>69</ele>
        <time>2016-05-26T00:01:57Z</time>
      </trkpt>
      <trkpt lat="43.49312" lon="6.53546">
        <ele>70</ele>
        <time>2016-05-26T00:03:57Z</time>
      </trkpt>
      <trkpt lat="43.49324" lon="6.53509">
        <ele>70</ele>
        <time>2016-05-26T00:05:57Z</time>
      </trkpt>
      <trkpt lat="43.49336" lon="6.53486">
        <ele>70</ele>
        <time>2016-05-26T00:07:57Z</time>
      </trkpt>
      <trkpt lat="43.49348" lon="6.53464">
        <ele>70</ele>
        <time>2016-05-26T00:09:57Z</time>
      </trkpt>
      <trkpt lat="43.49362" lon="6.53445">
        <ele>71</ele>
        <time>2016-05-26T00:11:57Z</time>
      </trkpt>
      <trkpt lat="43.49344" lon="6.53425">
        <ele>68</ele>
        <time>2016-05-26T00:13:57Z</time>
      </trkpt>
      <trkpt lat="43.49319" lon="6.53407">
        <ele>65</ele>
        <time>2016-05-26T00:15:57Z</time>
      </trkpt>
      <trkpt lat="43.49318" lon="6.5338">
        <ele>64</ele>
        <time>2016-05-26T00:17:57Z</time>
      </trkpt>
      <trkpt lat="43.49326" lon="6.5334">
        <ele>64</ele>
        <time>2016-05-26T00:19:57Z</time>
      </trkpt>
      <trkpt lat="43.49333" lon="6.53308">
        <ele>64</ele>
        <time>2016-05-26T00:21:57Z</time>
      </trkpt>
      <trkpt lat="43.49343" lon="6.5328">
        <ele>64</ele>
        <time>2016-05-26T00:23:57Z</time>
      </trkpt>
      <trkpt lat="43.4935" lon="6.53246">
        <ele>64</ele>
        <time>2016-05-26T00:25:57Z</time>
      </trkpt>
      <trkpt lat="43.49354" lon="6.53215">
        <ele>64</ele>
        <time>2016-05-26T00:27:57Z</time>
      </trkpt>
      <trkpt lat="43.49331" lon="6.532">
        <ele>63</ele>
        <time>2016-05-26T00:29:57Z</time>
      </trkpt>
      <trkpt lat="43.49307" lon="6.53176">
        <ele>62</ele>
        <time>2016-05-26T00:31:57Z</time>
      </trkpt>
      <trkpt lat="43.49319" lon="6.53148">
        <ele>62</ele>
        <time>2016-05-26T00:33:57Z</time>
      </trkpt>
      <trkpt lat="43.49332" lon="6.53129">
        <ele>62</ele>
        <time>2016-05-26T00:35:57Z</time>
      </trkpt>
      <trkpt lat="43.49336" lon="6.53106">
        <ele>63</ele>
        <time>2016-05-26T00:37:57Z</time>
      </trkpt>
      <trkpt lat="43.49351" lon="6.53084">
        <ele>63</ele>
        <time>2016-05-26T00:39:57Z</time>
      </trkpt>
      <trkpt lat="43.49367" lon="6.53051">
        <ele>65</ele>
        <time>2016-05-26T00:41:57Z</time>
      </trkpt>
      <trkpt lat="43.49365" lon="6.53019">
        <ele>66</ele>
        <time>2016-05-26T00:43:57Z</time>
      </trkpt>
      <trkpt lat="43.49361" lon="6.53001">
        <ele>67</ele>
        <time>2016-05-26T00:45:57Z</time>
      </trkpt>
      <trkpt lat="43.49342" lon="6.52987">
        <ele>68</ele>
        <time>2016-05-26T00:47:57Z</time>
      </trkpt>
      <trkpt lat="43.49324" lon="6.52969">
        <ele>69</ele>
        <time>2016-05-26T00:49:57Z</time>
      </trkpt>
      <trkpt lat="43.49314" lon="6.52951">
        <ele>70</ele>
        <time>2016-05-26T00:51:57Z</time>
      </trkpt>
      <trkpt lat="43.49314" lon="6.52923">
        <ele>72</ele>
        <time>2016-05-26T00:53:57Z</time>
      </trkpt>
      <trkpt lat="43.49312" lon="6.52895">
        <ele>73</ele>
        <time>2016-05-26T00:55:57Z</time>
      </trkpt>
      <trkpt lat="43.493" lon="6.52874">
        <ele>74</ele>
        <time>2016-05-26T00:57:57Z</time>
      </trkpt>
      <trkpt lat="43.49288" lon="6.52855">
        <ele>75</ele>
        <time>2016-05-26T00:59:57Z</time>
      </trkpt>
      <trkpt lat="43.49273" lon="6.5284">
        <ele>77</ele>
        <time>2016-05-26T01:01:57Z</time>
      </trkpt>
      <trkpt lat="43.49254" lon="6.52822">
        <ele>78</ele>
        <time>2016-05-26T01:03:57Z</time>
      </trkpt>
      <trkpt lat="43.49226" lon="6.52816">
        <ele>80</ele>
        <time>2016-05-26T01:05:57Z</time>
      </trkpt>
      <trkpt lat="43.49207" lon="6.52821">
        <ele>81</ele>
        <time>2016-05-26T01:07:57Z</time>
      </trkpt>
      <trkpt lat="43.49188" lon="6.52816">
        <ele>82</ele>
        <time>2016-05-26T01:09:57Z</time>
      </trkpt>
      <trkpt lat="43.4917" lon="6.52798">
        <ele>83</ele>
        <time>2016-05-26T01:11:57Z</time>
      </trkpt>
      <trkpt lat="43.4915" lon="6.52778">
        <ele>82</ele>
        <time>2016-05-26T01:13:57Z</time>
      </trkpt>
      <trkpt lat="43.49136" lon="6.52744">
        <ele>82</ele>
        <time>2016-05-26T01:15:57Z</time>
      </trkpt>
      <trkpt lat="43.49115" lon="6.52739">
        <ele>81</ele>
        <time>2016-05-26T01:17:57Z</time>
      </trkpt>
      <trkpt lat="43.49094" lon="6.52695">
        <ele>81</ele>
        <time>2016-05-26T01:19:57Z</time>
      </trkpt>
      <trkpt lat="43.49094" lon="6.52673">
        <ele>82</ele>
        <time>2016-05-26T01:21:57Z</time>
      </trkpt>
      <trkpt lat="43.49089" lon="6.52642">
        <ele>84</ele>
        <time>2016-05-26T01:23:57Z</time>
      </trkpt>
      <trkpt lat="43.4908" lon="6.52609">
        <ele>88</ele>
        <time>2016-05-26T01:25:57Z</time>
      </trkpt>
      <trkpt lat="43.49073" lon="6.52596">
        <ele>90</ele>
        <time>2016-05-26T01:27:57Z</time>
      </trkpt>
      <trkpt lat="43.49073" lon="6.52565">
        <ele>93</ele>
        <time>2016-05-26T01:29:57Z</time>
      </trkpt>
      <trkpt lat="43.4908" lon="6.52538">
        <ele>96</ele>
        <time>2016-05-26T01:31:57Z</time>
      </trkpt>
      <trkpt lat="43.49097" lon="6.52525">
        <ele>97</ele>
        <time>2016-05-26T01:33:57Z</time>
      </trkpt>
      <trkpt lat="43.49115" lon="6.52522">
        <ele>98</ele>
        <time>2016-05-26T01:35:57Z</time>
      </trkpt>
      <trkpt lat="43.49136" lon="6.52531">
        <ele>97</ele>
        <time>2016-05-26T01:37:57Z</time>
      </trkpt>
      <trkpt lat="43.49153" lon="6.52531">
        <ele>97</ele>
        <time>2016-05-26T01:39:57Z</time>
      </trkpt>
      <trkpt lat="43.49173" lon="6.5252">
        <ele>98</ele>
        <time>2016-05-26T01:41:57Z</time>
      </trkpt>
      <trkpt lat="43.49191" lon="6.52508">
        <ele>96</ele>
        <time>2016-05-26T01:43:57Z</time>
      </trkpt>
      <trkpt lat="43.49201" lon="6.52495">
        <ele>96</ele>
        <time>2016-05-26T01:45:57Z</time>
      </trkpt>
      <trkpt lat="43.4921" lon="6.52466">
        <ele>97</ele>
        <time>2016-05-26T01:47:57Z</time>
      </trkpt>
      <trkpt lat="43.49221" lon="6.52448">
        <ele>98</ele>
        <time>2016-05-26T01:49:57Z</time>
      </trkpt>
      <trkpt lat="43.49233" lon="6.52425">
        <ele>100</ele>
        <time>2016-05-26T01:51:57Z</time>
      </trkpt>
      <trkpt lat="43.49241" lon="6.52396">
        <ele>101</ele>
        <time>2016-05-26T01:53:57Z</time>
      </trkpt>
      <trkpt lat="43.49248" lon="6.52369">
        <ele>102</ele>
        <time>2016-05-26T01:55:57Z</time>
      </trkpt>
      <trkpt lat="43.49252" lon="6.52347">
        <ele>102</ele>
        <time>2016-05-26T01:57:57Z</time>
      </trkpt>
      <trkpt lat="43.49251" lon="6.52306">
        <ele>103</ele>
        <time>2016-05-26T01:59:57Z</time>
      </trkpt>
      <trkpt lat="43.49251" lon="6.5228">
        <ele>104</ele>
        <time>2016-05-26T02:01:57Z</time>
      </trkpt>
      <trkpt lat="43.49251" lon="6.52258">
        <ele>105</ele>
        <time>2016-05-26T02:03:57Z</time>
      </trkpt>
      <trkpt lat="43.49266" lon="6.52238">
        <ele>103</ele>
        <time>2016-05-26T02:05:57Z</time>
      </trkpt>
      <trkpt lat="43.49284" lon="6.52226">
        <ele>100</ele>
        <time>2016-05-26T02:07:57Z</time>
      </trkpt>
      <trkpt lat="43.49297" lon="6.52212">
        <ele>99</ele>
        <time>2016-05-26T02:09:57Z</time>
      </trkpt>
      <trkpt lat="43.49309" lon="6.52193">
        <ele>99</ele>
        <time>2016-05-26T02:11:57Z</time>
      </trkpt>
      <trkpt lat="43.4932" lon="6.52167">
        <ele>101</ele>
        <time>2016-05-26T02:13:57Z</time>
      </trkpt>
      <trkpt lat="43.49326" lon="6.52134">
        <ele>104</ele>
        <time>2016-05-26T02:15:57Z</time>
      </trkpt>
      <trkpt lat="43.49345" lon="6.52114">
        <ele>103</ele>
        <time>2016-05-26T02:17:57Z</time>
      </trkpt>
      <trkpt lat="43.49368" lon="6.52106">
        <ele>98</ele>
        <time>2016-05-26T02:19:57Z</time>
      </trkpt>
      <trkpt lat="43.49382" lon="6.52106">
        <ele>94</ele>
        <time>2016-05-26T02:21:57Z</time>
      </trkpt>
      <trkpt lat="43.49399" lon="6.52083">
        <ele>94</ele>
        <time>2016-05-26T02:23:57Z</time>
      </trkpt>
      <trkpt lat="43.49423" lon="6.52065">
        <ele>92</ele>
        <time>2016-05-26T02:25:57Z</time>
      </trkpt>
      <trkpt lat="43.49443" lon="6.52056">
        <ele>93</ele>
        <time>2016-05-26T02:27:57Z</time>
      </trkpt>
      <trkpt lat="43.49459" lon="6.52043">
        <ele>93</ele>
        <time>2016-05-26T02:29:57Z</time>
      </trkpt>
      <trkpt lat="43.49477" lon="6.52046">
        <ele>90</ele>
        <time>2016-05-26T02:31:57Z</time>
      </trkpt>
      <trkpt lat="43.49476" lon="6.52013">
        <ele>94</ele>
        <time>2016-05-26T02:33:57Z</time>
      </trkpt>
      <trkpt lat="43.49484" lon="6.51982">
        <ele>95</ele>
        <time>2016-05-26T02:35:57Z</time>
      </trkpt>
      <trkpt lat="43.49498" lon="6.51944">
        <ele>96</ele>
        <time>2016-05-26T02:37:57Z</time>
      </trkpt>
      <trkpt lat="43.49513" lon="6.51915">
        <ele>98</ele>
        <time>2016-05-26T02:39:57Z</time>
      </trkpt>
      <trkpt lat="43.49517" lon="6.51889">
        <ele>104</ele>
        <time>2016-05-26T02:41:57Z</time>
      </trkpt>
      <trkpt lat="43.49494" lon="6.51889">
        <ele>107</ele>
        <time>2016-05-26T02:43:57Z</time>
      </trkpt>
      <trkpt lat="43.49473" lon="6.51893">
        <ele>109</ele>
        <time>2016-05-26T02:45:57Z</time>
      </trkpt>
      <trkpt lat="43.49453" lon="6.51888">
        <ele>113</ele>
        <time>2016-05-26T02:47:57Z</time>
      </trkpt>
      <trkpt lat="43.49438" lon="6.51875">
        <ele>116</ele>
        <time>2016-05-26T02:49:57Z</time>
      </trkpt>
      <trkpt lat="43.49426" lon="6.51846">
        <ele>119</ele>
        <time>2016-05-26T02:51:57Z</time>
      </trkpt>
      <trkpt lat="43.49417" lon="6.5181">
        <ele>119</ele>
        <time>2016-05-26T02:53:57Z</time>
      </trkpt>
      <trkpt lat="43.49439" lon="6.51839">
        <ele>119</ele>
        <time>2016-05-26T02:55:57Z</time>
      </trkpt>
      <trkpt lat="43.49477" lon="6.51869">
        <ele>114</ele>
        <time>2016-05-26T02:57:57Z</time>
      </trkpt>
      <trkpt lat="43.49515" lon="6.5185">
        <ele>115</ele>
        <time>2016-05-26T02:59:57Z</time>
      </trkpt>
      <trkpt lat="43.49553" lon="6.51838">
        <ele>113</ele>
        <time>2016-05-26T03:01:57Z</time>
      </trkpt>
      <trkpt lat="43.49596" lon="6.51835">
        <ele>109</ele>
        <time>2016-05-26T03:03:57Z</time>
      </trkpt>
      <trkpt lat="43.49631" lon="6.51826">
        <ele>112</ele>
        <time>2016-05-26T03:05:57Z</time>
      </trkpt>
      <trkpt lat="43.49666" lon="6.51824">
        <ele>112</ele>
        <time>2016-05-26T03:07:57Z</time>
      </trkpt>
      <trkpt lat="43.49689" lon="6.51825">
        <ele>112</ele>
        <time>2016-05-26T03:09:57Z</time>
      </trkpt>
      <trkpt lat="43.49712" lon="6.51838">
        <ele>108</ele>
        <time>2016-05-26T03:11:57Z</time>
      </trkpt>
      <trkpt lat="43.49727" lon="6.51854">
        <ele>107</ele>
        <time>2016-05-26T03:13:57Z</time>
      </trkpt>
      <trkpt lat="43.49741" lon="6.51875">
        <ele>104</ele>
        <time>2016-05-26T03:15:57Z</time>
      </trkpt>
      <trkpt lat="43.49763" lon="6.5189">
        <ele>104</ele>
        <time>2016-05-26T03:17:57Z</time>
      </trkpt>
      <trkpt lat="43.49774" lon="6.51909">
        <ele>103</ele>
        <time>2016-05-26T03:19:57Z</time>
      </trkpt>
      <trkpt lat="43.49787" lon="6.51904">
        <ele>105</ele>
        <time>2016-05-26T03:21:57Z</time>
      </trkpt>
      <trkpt lat="43.49797" lon="6.51882">
        <ele>109</ele>
        <time>2016-05-26T03:23:57Z</time>
      </trkpt>
      <trkpt lat="43.49814" lon="6.51861">
        <ele>113</ele>
        <time>2016-05-26T03:25:57Z</time>
      </trkpt>
      <trkpt lat="43.49832" lon="6.51845">
        <ele>116</ele>
        <time>2016-05-26T03:27:57Z</time>
      </trkpt>
      <trkpt lat="43.49861" lon="6.51834">
        <ele>121</ele>
        <time>2016-05-26T03:29:57Z</time>
      </trkpt>
      <trkpt lat="43.49883" lon="6.5182">
        <ele>128</ele>
        <time>2016-05-26T03:31:57Z</time>
      </trkpt>
      <trkpt lat="43.499" lon="6.51806">
        <ele>134</ele>
        <time>2016-05-26T03:33:57Z</time>
      </trkpt>
      <trkpt lat="43.49913" lon="6.51784">
        <ele>139</ele>
        <time>2016-05-26T03:35:57Z</time>
      </trkpt>
      <trkpt lat="43.49927" lon="6.51769">
        <ele>143</ele>
        <time>2016-05-26T03:37:57Z</time>
      </trkpt>
      <trkpt lat="43.49951" lon="6.5175">
        <ele>146</ele>
        <time>2016-05-26T03:39:57Z</time>
      </trkpt>
      <trkpt lat="43.49971" lon="6.5175">
        <ele>146</ele>
        <time>2016-05-26T03:41:57Z</time>
      </trkpt>
      <trkpt lat="43.49988" lon="6.51751">
        <ele>147</ele>
        <time>2016-05-26T03:43:57Z</time>
      </trkpt>
      <trkpt lat="43.50007" lon="6.51726">
        <ele>150</ele>
        <time>2016-05-26T03:45:57Z</time>
      </trkpt>
      <trkpt lat="43.50022" lon="6.51697">
        <ele>153</ele>
        <time>2016-05-26T03:47:57Z</time>
      </trkpt>
      <trkpt lat="43.50035" lon="6.51678">
        <ele>153</ele>
        <time>2016-05-26T03:49:57Z</time>
      </trkpt>
      <trkpt lat="43.50085" lon="6.51673">
        <ele>154</ele>
        <time>2016-05-26T03:51:57Z</time>
      </trkpt>
      <trkpt lat="43.50105" lon="6.51683">
        <ele>158</ele>
        <time>2016-05-26T03:53:57Z</time>
      </trkpt>
      <trkpt lat="43.50132" lon="6.51703">
        <ele>164</ele>
        <time>2016-05-26T03:55:57Z</time>
      </trkpt>
      <trkpt lat="43.50155" lon="6.51716">
        <ele>169</ele>
        <time>2016-05-26T03:57:57Z</time>
      </trkpt>
      <trkpt lat="43.50177" lon="6.51731">
        <ele>172</ele>
        <time>2016-05-26T03:59:57Z</time>
      </trkpt>
      <trkpt lat="43.50198" lon="6.51743">
        <ele>173</ele>
        <time>2016-05-26T04:01:57Z</time>
      </trkpt>
      <trkpt lat="43.50214" lon="6.5176">
        <ele>175</ele>
        <time>2016-05-26T04:03:57Z</time>
      </trkpt>
      <trkpt lat="43.50222" lon="6.51779">
        <ele>178</ele>
        <time>2016-05-26T04:05:57Z</time>
      </trkpt>
      <trkpt lat="43.50202" lon="6.51781">
        <ele>180</ele>
        <time>2016-05-26T04:07:57Z</time>
      </trkpt>
      <trkpt lat="43.50175" lon="6.51779">
        <ele>181</ele>
        <time>2016-05-26T04:09:57Z</time>
      </trkpt>
      <trkpt lat="43.50151" lon="6.51779">
        <ele>180</ele>
        <time>2016-05-26T04:11:57Z</time>
      </trkpt>
      <trkpt lat="43.50136" lon="6.51789">
        <ele>181</ele>
        <time>2016-05-26T04:13:57Z</time>
      </trkpt>
      <trkpt lat="43.50118" lon="6.51802">
        <ele>183</ele>
        <time>2016-05-26T04:15:57Z</time>
      </trkpt>
      <trkpt lat="43.50094" lon="6.51823">
        <ele>186</ele>
        <time>2016-05-26T04:17:57Z</time>
      </trkpt>
      <trkpt lat="43.50073" lon="6.51833">
        <ele>184</ele>
        <time>2016-05-26T04:19:57Z</time>
      </trkpt>
      <trkpt lat="43.50049" lon="6.51847">
        <ele>178</ele>
        <time>2016-05-26T04:21:57Z</time>
      </trkpt>
      <trkpt lat="43.50034" lon="6.5186">
        <ele>176</ele>
        <time>2016-05-26T04:23:57Z</time>
      </trkpt>
      <trkpt lat="43.50031" lon="6.5189">
        <ele>180</ele>
        <time>2016-05-26T04:25:57Z</time>
      </trkpt>
      <trkpt lat="43.50024" lon="6.51918">
        <ele>183</ele>
        <time>2016-05-26T04:27:57Z</time>
      </trkpt>
      <trkpt lat="43.50006" lon="6.51932">
        <ele>178</ele>
        <time>2016-05-26T04:29:57Z</time>
      </trkpt>
      <trkpt lat="43.5" lon="6.51956">
        <ele>178</ele>
        <time>2016-05-26T04:31:57Z</time>
      </trkpt>
      <trkpt lat="43.49998" lon="6.51995">
        <ele>179</ele>
        <time>2016-05-26T04:33:57Z</time>
      </trkpt>
      <trkpt lat="43.49999" lon="6.52036">
        <ele>177</ele>
        <time>2016-05-26T04:35:57Z</time>
      </trkpt>
      <trkpt lat="43.50017" lon="6.52084">
        <ele>178</ele>
        <time>2016-05-26T04:37:57Z</time>
      </trkpt>
      <trkpt lat="43.50028" lon="6.52119">
        <ele>176</ele>
        <time>2016-05-26T04:39:57Z</time>
      </trkpt>
      <trkpt lat="43.50053" lon="6.52157">
        <ele>177</ele>
        <time>2016-05-26T04:41:57Z</time>
      </trkpt>
      <trkpt lat="43.5007" lon="6.52191">
        <ele>179</ele>
        <time>2016-05-26T04:43:57Z</time>
      </trkpt>
      <trkpt lat="43.50084" lon="6.52222">
        <ele>180</ele>
        <time>2016-05-26T04:45:57Z</time>
      </trkpt>
      <trkpt lat="43.50101" lon="6.52268">
        <ele>182</ele>
        <time>2016-05-26T04:47:57Z</time>
      </trkpt>
      <trkpt lat="43.5012" lon="6.5231">
        <ele>184</ele>
        <time>2016-05-26T04:49:57Z</time>
      </trkpt>
      <trkpt lat="43.50144" lon="6.52346">
        <ele>187</ele>
        <time>2016-05-26T04:51:57Z</time>
      </trkpt>
      <trkpt lat="43.5016" lon="6.52366">
        <ele>189</ele>
        <time>2016-05-26T04:53:57Z</time>
      </trkpt>
      <trkpt lat="43.5018" lon="6.52381">
        <ele>192</ele>
        <time>2016-05-26T04:55:57Z</time>
      </trkpt>
      <trkpt lat="43.50204" lon="6.52402">
        <ele>195</ele>
        <time>2016-05-26T04:57:57Z</time>
      </trkpt>
      <trkpt lat="43.50231" lon="6.52428">
        <ele>197</ele>
        <time>2016-05-26T04:59:57Z</time>
      </trkpt>
      <trkpt lat="43.50261" lon="6.52455">
        <ele>197</ele>
        <time>2016-05-26T05:01:57Z</time>
      </trkpt>
      <trkpt lat="43.50284" lon="6.52469">
        <ele>197</ele>
        <time>2016-05-26T05:03:57Z</time>
      </trkpt>
      <trkpt lat="43.50307" lon="6.52498">
        <ele>193</ele>
        <time>2016-05-26T05:05:57Z</time>
      </trkpt>
      <trkpt lat="43.50329" lon="6.52512">
        <ele>194</ele>
        <time>2016-05-26T05:07:57Z</time>
      </trkpt>
      <trkpt lat="43.50329" lon="6.52537">
        <ele>195</ele>
        <time>2016-05-26T05:09:57Z</time>
      </trkpt>
      <trkpt lat="43.50322" lon="6.52576">
        <ele>196</ele>
        <time>2016-05-26T05:11:57Z</time>
      </trkpt>
      <trkpt lat="43.50325" lon="6.52604">
        <ele>197</ele>
        <time>2016-05-26T05:13:57Z</time>
      </trkpt>
      <trkpt lat="43.50327" lon="6.52648">
        <ele>198</ele>
        <time>2016-05-26T05:15:57Z</time>
      </trkpt>
      <trkpt lat="43.50337" lon="6.5268">
        <ele>199</ele>
        <time>2016-05-26T05:17:57Z</time>
      </trkpt>
      <trkpt lat="43.50345" lon="6.52708">
        <ele>202</ele>
        <time>2016-05-26T05:19:57Z</time>
      </trkpt>
      <trkpt lat="43.50354" lon="6.52737">
        <ele>203</ele>
        <time>2016-05-26T05:21:57Z</time>
      </trkpt>
      <trkpt lat="43.50364" lon="6.52763">
        <ele>205</ele>
        <time>2016-05-26T05:23:57Z</time>
      </trkpt>
      <trkpt lat="43.50372" lon="6.52792">
        <ele>207</ele>
        <time>2016-05-26T05:25:57Z</time>
      </trkpt>
      <trkpt lat="43.50393" lon="6.52803">
        <ele>206</ele>
        <time>2016-05-26T05:27:57Z</time>
      </trkpt>
      <trkpt lat="43.50425" lon="6.52809">
        <ele>205</ele>
        <time>2016-05-26T05:29:57Z</time>
      </trkpt>
      <trkpt lat="43.50444" lon="6.52824">
        <ele>205</ele>
        <time>2016-05-26T05:31:57Z</time>
      </trkpt>
      <trkpt lat="43.50458" lon="6.52844">
        <ele>205</ele>
        <time>2016-05-26T05:33:57Z</time>
      </trkpt>
      <trkpt lat="43.50469" lon="6.52863">
        <ele>207</ele>
        <time>2016-05-26T05:35:57Z</time>
      </trkpt>
      <trkpt lat="43.50485" lon="6.52865">
        <ele>207</ele>
        <time>2016-05-26T05:37:57Z</time>
      </trkpt>
      <trkpt lat="43.50504" lon="6.52865">
        <ele>207</ele>
        <time>2016-05-26T05:39:57Z</time>
      </trkpt>
      <trkpt lat="43.50506" lon="6.52888">
        <ele>208</ele>
        <time>2016-05-26T05:41:57Z</time>
      </trkpt>
      <trkpt lat="43.50488" lon="6.52908">
        <ele>209</ele>
        <time>2016-05-26T05:43:57Z</time>
      </trkpt>
      <trkpt lat="43.50472" lon="6.52911">
        <ele>211</ele>
        <time>2016-05-26T05:45:57Z</time>
      </trkpt>
      <trkpt lat="43.5045" lon="6.52912">
        <ele>212</ele>
        <time>2016-05-26T05:47:57Z</time>
      </trkpt>
      <trkpt lat="43.50427" lon="6.52893">
        <ele>211</ele>
        <time>2016-05-26T05:49:57Z</time>
      </trkpt>
      <trkpt lat="43.504" lon="6.52886">
        <ele>212</ele>
        <time>2016-05-26T05:51:57Z</time>
      </trkpt>
      <trkpt lat="43.50379" lon="6.52891">
        <ele>214</ele>
        <time>2016-05-26T05:53:57Z</time>
      </trkpt>
      <trkpt lat="43.50361" lon="6.52898">
        <ele>216</ele>
        <time>2016-05-26T05:55:57Z</time>
      </trkpt>
      <trkpt lat="43.50376" lon="6.52916">
        <ele>217</ele>
        <time>2016-05-26T05:57:57Z</time>
      </trkpt>
      <trkpt lat="43.5039" lon="6.52934">
        <ele>217</ele>
        <time>2016-05-26T05:59:57Z</time>
      </trkpt>
      <trkpt lat="43.50402" lon="6.52953">
        <ele>218</ele>
        <time>2016-05-26T06:01:57Z</time>
      </trkpt>
      <trkpt lat="43.50412" lon="6.52979">
        <ele>219</ele>
        <time>2016-05-26T06:03:57Z</time>
      </trkpt>
      <trkpt lat="43.50416" lon="6.53007">
        <ele>220</ele>
        <time>2016-05-26T06:05:57Z</time>
      </trkpt>
      <trkpt lat="43.50422" lon="6.53026">
        <ele>218</ele>
        <time>2016-05-26T06:07:57Z</time>
      </trkpt>
      <trkpt lat="43.50433" lon="6.53047">
        <ele>216</ele>
        <time>2016-05-26T06:09:57Z</time>
      </trkpt>
      <trkpt lat="43.50442" lon="6.53067">
        <ele>215</ele>
        <time>2016-05-26T06:11:57Z</time>
      </trkpt>
      <trkpt lat="43.50449" lon="6.53086">
        <ele>214</ele>
        <time>2016-05-26T06:13:57Z</time>
      </trkpt>
      <trkpt lat="43.50423" lon="6.53083">
        <ele>212</ele>
        <time>2016-05-26T06:15:57Z</time>
      </trkpt>
      <trkpt lat="43.50394" lon="6.53085">
        <ele>207</ele>
        <time>2016-05-26T06:17:57Z</time>
      </trkpt>
      <trkpt lat="43.50372" lon="6.53074">
        <ele>205</ele>
        <time>2016-05-26T06:19:57Z</time>
      </trkpt>
      <trkpt lat="43.50346" lon="6.5306">
        <ele>204</ele>
        <time>2016-05-26T06:21:57Z</time>
      </trkpt>
      <trkpt lat="43.50328" lon="6.53056">
        <ele>202</ele>
        <time>2016-05-26T06:23:57Z</time>
      </trkpt>
      <trkpt lat="43.50299" lon="6.53041">
        <ele>201</ele>
        <time>2016-05-26T06:25:57Z</time>
      </trkpt>
      <trkpt lat="43.50266" lon="6.53031">
        <ele>199</ele>
        <time>2016-05-26T06:27:57Z</time>
      </trkpt>
      <trkpt lat="43.50239" lon="6.53024">
        <ele>197</ele>
        <time>2016-05-26T06:29:57Z</time>
      </trkpt>
      <trkpt lat="43.50202" lon="6.53015">
        <ele>195</ele>
        <time>2016-05-26T06:31:57Z</time>
      </trkpt>
      <trkpt lat="43.5019" lon="6.53015">
        <ele>194</ele>
        <time>2016-05-26T06:33:57Z</time>
      </trkpt>
      <trkpt lat="43.50195" lon="6.53036">
        <ele>189</ele>
        <time>2016-05-26T06:35:57Z</time>
      </trkpt>
      <trkpt lat="43.5021" lon="6.53059">
        <ele>185</ele>
        <time>2016-05-26T06:37:57Z</time>
      </trkpt>
      <trkpt lat="43.50239" lon="6.53075">
        <ele>185</ele>
        <time>2016-05-26T06:39:57Z</time>
      </trkpt>
      <trkpt lat="43.50271" lon="6.53086">
        <ele>187</ele>
        <time>2016-05-26T06:41:57Z</time>
      </trkpt>
      <trkpt lat="43.5029" lon="6.53119">
        <ele>183</ele>
        <time>2016-05-26T06:43:57Z</time>
      </trkpt>
      <trkpt lat="43.50309" lon="6.53142">
        <ele>181</ele>
        <time>2016-05-26T06:45:57Z</time>
      </trkpt>
      <trkpt lat="43.50322" lon="6.53159">
        <ele>180</ele>
        <time>2016-05-26T06:47:57Z</time>
      </trkpt>
      <trkpt lat="43.50322" lon="6.53177">
        <ele>177</ele>
        <time>2016-05-26T06:49:57Z</time>
      </trkpt>
      <trkpt lat="43.50308" lon="6.53195">
        <ele>174</ele>
        <time>2016-05-26T06:51:57Z</time>
      </trkpt>
      <trkpt lat="43.50294" lon="6.53209">
        <ele>172</ele>
        <time>2016-05-26T06:53:57Z</time>
      </trkpt>
      <trkpt lat="43.50284" lon="6.53234">
        <ele>169</ele>
        <time>2016-05-26T06:55:57Z</time>
      </trkpt>
      <trkpt lat="43.50266" lon="6.53252">
        <ele>167</ele>
        <time>2016-05-26T06:57:57Z</time>
      </trkpt>
      <trkpt lat="43.50249" lon="6.53266">
        <ele>166</ele>
        <time>2016-05-26T06:59:57Z</time>
      </trkpt>
      <trkpt lat="43.50241" lon="6.53278">
        <ele>166</ele>
        <time>2016-05-26T07:01:57Z</time>
      </trkpt>
      <trkpt lat="43.50231" lon="6.53297">
        <ele>168</ele>
        <time>2016-05-26T07:03:57Z</time>
      </trkpt>
      <trkpt lat="43.50211" lon="6.53303">
        <ele>170</ele>
        <time>2016-05-26T07:05:57Z</time>
      </trkpt>
      <trkpt lat="43.50203" lon="6.53294">
        <ele>169</ele>
        <time>2016-05-26T07:07:57Z</time>
      </trkpt>
      <trkpt lat="43.50193" lon="6.53279">
        <ele>166</ele>
        <time>2016-05-26T07:09:57Z</time>
      </trkpt>
      <trkpt lat="43.50181" lon="6.53274">
        <ele>165</ele>
        <time>2016-05-26T07:11:57Z</time>
      </trkpt>
      <trkpt lat="43.50168" lon="6.53268">
        <ele>163</ele>
        <time>2016-05-26T07:13:57Z</time>
      </trkpt>
      <trkpt lat="43.50157" lon="6.53268">
        <ele>162</ele>
        <time>2016-05-26T07:15:57Z</time>
      </trkpt>
      <trkpt lat="43.50145" lon="6.53264">
        <ele>158</ele>
        <time>2016-05-26T07:17:57Z</time>
      </trkpt>
      <trkpt lat="43.5013" lon="6.53265">
        <ele>156</ele>
        <time>2016-05-26T07:19:57Z</time>
      </trkpt>
      <trkpt lat="43.50118" lon="6.53265">
        <ele>154</ele>
        <time>2016-05-26T07:21:57Z</time>
      </trkpt>
      <trkpt lat="43.50103" lon="6.53271">
        <ele>153</ele>
        <time>2016-05-26T07:23:57Z</time>
      </trkpt>
      <trkpt lat="43.50095" lon="6.53281">
        <ele>155</ele>
        <time>2016-05-26T07:25:57Z</time>
      </trkpt>
      <trkpt lat="43.5009" lon="6.53291">
        <ele>157</ele>
        <time>2016-05-26T07:27:57Z</time>
      </trkpt>
      <trkpt lat="43.50079" lon="6.53303">
        <ele>159</ele>
        <time>2016-05-26T07:29:57Z</time>
      </trkpt>
      <trkpt lat="43.50071" lon="6.53307">
        <ele>158</ele>
        <time>2016-05-26T07:31:57Z</time>
      </trkpt>
      <trkpt lat="43.50065" lon="6.53313">
        <ele>158</ele>
        <time>2016-05-26T07:33:57Z</time>
      </trkpt>
      <trkpt lat="43.50054" lon="6.53319">
        <ele>156</ele>
        <time>2016-05-26T07:35:57Z</time>
      </trkpt>
      <trkpt lat="43.50044" lon="6.53325">
        <ele>155</ele>
        <time>2016-05-26T07:37:57Z</time>
      </trkpt>
      <trkpt lat="43.50037" lon="6.53332">
        <ele>154</ele>
        <time>2016-05-26T07:39:57Z</time>
      </trkpt>
      <trkpt lat="43.5003" lon="6.53338">
        <ele>153</ele>
        <time>2016-05-26T07:41:57Z</time>
      </trkpt>
      <trkpt lat="43.50023" lon="6.53339">
        <ele>151</ele>
        <time>2016-05-26T07:43:57Z</time>
      </trkpt>
      <trkpt lat="43.50014" lon="6.53326">
        <ele>145</ele>
        <time>2016-05-26T07:45:57Z</time>
      </trkpt>
      <trkpt lat="43.50007" lon="6.53316">
        <ele>141</ele>
        <time>2016-05-26T07:47:57Z</time>
      </trkpt>
      <trkpt lat="43.49994" lon="6.53326">
        <ele>140</ele>
        <time>2016-05-26T07:49:57Z</time>
      </trkpt>
      <trkpt lat="43.4998" lon="6.5334">
        <ele>141</ele>
        <time>2016-05-26T07:51:57Z</time>
      </trkpt>
      <trkpt lat="43.49965" lon="6.53347">
        <ele>140</ele>
        <time>2016-05-26T07:53:57Z</time>
      </trkpt>
      <trkpt lat="43.4995" lon="6.53359">
        <ele>140</ele>
        <time>2016-05-26T07:55:57Z</time>
      </trkpt>
      <trkpt lat="43.49933" lon="6.53371">
        <ele>139</ele>
        <time>2016-05-26T07:57:57Z</time>
      </trkpt>
      <trkpt lat="43.49924" lon="6.53376">
        <ele>138</ele>
        <time>2016-05-26T07:59:57Z</time>
      </trkpt>
      <trkpt lat="43.49913" lon="6.53384">
        <ele>138</ele>
        <time>2016-05-26T08:01:57Z</time>
      </trkpt>
      <trkpt lat="43.49897" lon="6.53388">
        <ele>137</ele>
        <time>2016-05-26T08:03:57Z</time>
      </trkpt>
      <trkpt lat="43.49887" lon="6.53392">
        <ele>136</ele>
        <time>2016-05-26T08:05:57Z</time>
      </trkpt>
      <trkpt lat="43.49873" lon="6.53392">
        <ele>134</ele>
        <time>2016-05-26T08:07:57Z</time>
      </trkpt>
      <trkpt lat="43.49862" lon="6.53393">
        <ele>133</ele>
        <time>2016-05-26T08:09:57Z</time>
      </trkpt>
      <trkpt lat="43.49848" lon="6.534">
        <ele>132</ele>
        <time>2016-05-26T08:11:57Z</time>
      </trkpt>
      <trkpt lat="43.49838" lon="6.53408">
        <ele>132</ele>
        <time>2016-05-26T08:13:57Z</time>
      </trkpt>
      <trkpt lat="43.49824" lon="6.53422">
        <ele>133</ele>
        <time>2016-05-26T08:15:57Z</time>
      </trkpt>
      <trkpt lat="43.49815" lon="6.53426">
        <ele>133</ele>
        <time>2016-05-26T08:17:57Z</time>
      </trkpt>
      <trkpt lat="43.49802" lon="6.53422">
        <ele>131</ele>
        <time>2016-05-26T08:19:57Z</time>
      </trkpt>
      <trkpt lat="43.49786" lon="6.53405">
        <ele>129</ele>
        <time>2016-05-26T08:21:57Z</time>
      </trkpt>
      <trkpt lat="43.49775" lon="6.53391">
        <ele>127</ele>
        <time>2016-05-26T08:23:57Z</time>
      </trkpt>
      <trkpt lat="43.49764" lon="6.53379">
        <ele>126</ele>
        <time>2016-05-26T08:25:57Z</time>
      </trkpt>
      <trkpt lat="43.49752" lon="6.53364">
        <ele>124</ele>
        <time>2016-05-26T08:27:57Z</time>
      </trkpt>
      <trkpt lat="43.4974" lon="6.53357">
        <ele>123</ele>
        <time>2016-05-26T08:29:57Z</time>
      </trkpt>
      <trkpt lat="43.49723" lon="6.53352">
        <ele>121</ele>
        <time>2016-05-26T08:31:57Z</time>
      </trkpt>
      <trkpt lat="43.49703" lon="6.5335">
        <ele>120</ele>
        <time>2016-05-26T08:33:57Z</time>
      </trkpt>
      <trkpt lat="43.49688" lon="6.53355">
        <ele>119</ele>
        <time>2016-05-26T08:35:57Z</time>
      </trkpt>
      <trkpt lat="43.49669" lon="6.53368">
        <ele>118</ele>
        <time>2016-05-26T08:37:57Z</time>
      </trkpt>
      <trkpt lat="43.49658" lon="6.53375">
        <ele>116</ele>
        <time>2016-05-26T08:39:57Z</time>
      </trkpt>
      <trkpt lat="43.49641" lon="6.53389">
        <ele>114</ele>
        <time>2016-05-26T08:41:57Z</time>
      </trkpt>
      <trkpt lat="43.49619" lon="6.53401">
        <ele>111</ele>
        <time>2016-05-26T08:43:57Z</time>
      </trkpt>
      <trkpt lat="43.49594" lon="6.53411">
        <ele>107</ele>
        <time>2016-05-26T08:45:57Z</time>
      </trkpt>
      <trkpt lat="43.49572" lon="6.53423">
        <ele>104</ele>
        <time>2016-05-26T08:47:57Z</time>
      </trkpt>
      <trkpt lat="43.49556" lon="6.53431">
        <ele>101</ele>
        <time>2016-05-26T08:49:57Z</time>
      </trkpt>
      <trkpt lat="43.49539" lon="6.53436">
        <ele>98</ele>
        <time>2016-05-26T08:51:57Z</time>
      </trkpt>
      <trkpt lat="43.49524" lon="6.53447">
        <ele>95</ele>
        <time>2016-05-26T08:53:57Z</time>
      </trkpt>
      <trkpt lat="43.49501" lon="6.53458">
        <ele>92</ele>
        <time>2016-05-26T08:55:57Z</time>
      </trkpt>
      <trkpt lat="43.49485" lon="6.53471">
        <ele>91</ele>
        <time>2016-05-26T08:57:57Z</time>
      </trkpt>
      <trkpt lat="43.49471" lon="6.53484">
        <ele>90</ele>
        <time>2016-05-26T08:59:57Z</time>
      </trkpt>
      <trkpt lat="43.49457" lon="6.535">
        <ele>89</ele>
        <time>2016-05-26T09:01:57Z</time>
      </trkpt>
      <trkpt lat="43.49442" lon="6.53519">
        <ele>88</ele>
        <time>2016-05-26T09:03:57Z</time>
      </trkpt>
      <trkpt lat="43.49437" lon="6.53536">
        <ele>87</ele>
        <time>2016-05-26T09:05:57Z</time>
      </trkpt>
      <trkpt lat="43.49427" lon="6.53541">
        <ele>86</ele>
        <time>2016-05-26T09:07:57Z</time>
      </trkpt>
      <trkpt lat="43.49414" lon="6.53551">
        <ele>84</ele>
        <time>2016-05-26T09:09:57Z</time>
      </trkpt>
      <trkpt lat="43.49406" lon="6.53565">
        <ele>83</ele>
        <time>2016-05-26T09:11:57Z</time>
      </trkpt>
      <trkpt lat="43.49392" lon="6.53573">
        <ele>81</ele>
        <time>2016-05-26T09:13:57Z</time>
      </trkpt>
      <trkpt lat="43.49382" lon="6.53574">
        <ele>80</ele>
        <time>2016-05-26T09:15:57Z</time>
      </trkpt>
      <trkpt lat="43.49367" lon="6.5358">
        <ele>78</ele>
        <time>2016-05-26T09:17:57Z</time>
      </trkpt>
      <trkpt lat="43.49358" lon="6.5358">
        <ele>77</ele>
        <time>2016-05-26T09:19:57Z</time>
      </trkpt>
      <trkpt lat="43.49361" lon="6.53589">
        <ele>78</ele>
        <time>2016-05-26T09:21:57Z</time>
      </trkpt>
      <trkpt lat="43.49369" lon="6.53595">
        <ele>80</ele>
        <time>2016-05-26T09:23:57Z</time>
      </trkpt>
      <trkpt lat="43.49357" lon="6.53609">
        <ele>79</ele>
        <time>2016-05-26T09:25:57Z</time>
      </trkpt>
      <trkpt lat="43.4935" lon="6.53622">
        <ele>80</ele>
        <time>2016-05-26T09:27:57Z</time>
      </trkpt>
      <trkpt lat="43.49341" lon="6.53627">
        <ele>79</ele>
        <time>2016-05-26T09:29:57Z</time>
      </trkpt>
      <trkpt lat="43.49329" lon="6.53619">
        <ele>77</ele>
        <time>2016-05-26T09:31:57Z</time>
      </trkpt>
      <trkpt lat="43.4932" lon="6.53604">
        <ele>74</ele>
        <time>2016-05-26T09:33:57Z</time>
      </trkpt>
      <trkpt lat="43.49312" lon="6.53592">
        <ele>72</ele>
        <time>2016-05-26T09:35:57Z</time>
      </trkpt>
    </trkseg>
  </trk>
</gpx>